This demonstration page uses our WeatherBlox Daily Observations layout. Learn more.

Left ArrowRight Arrow

Hourly Observations for February 18, 2021

Temp ( °F °C ) Dew Point ( °F °C ) Humidity (%) Winds ( mph kmh ) Pressure ( in mb ) Visibility ( mi km ) Precip ( " mm )
12:54 am 00:54 Cloudy 14 -10 6 -14.4 71 71 WSW 3 6 30.42 1030 9 14.48406 0 0
1:54 am 01:54 Cloudy 14 -10 6 -14.4 71 71 W 3 6 30.42 1030 10 16.0934 0 0
2:54 am 02:54 Cloudy 14 -10 6 -14.4 71 71 WNW 5 7 30.41 1030 10 16.0934 0 0
3:54 am 03:54 Cloudy 14 -10 6 -14.4 71 71 WNW 6 9 30.4 1029 10 16.0934 0 0
4:54 am 04:54 Cloudy 12 -11.1 6 -14.4 77 77 Calm 30.42 1030 10 16.0934 0 0
5:54 am 05:54 Clear 12 -11.1 6 -14.4 77 77 NW 6 9 30.44 1031 10 16.0934 0 0
6:54 am 06:54 Clear 10 -12.2 5 -15 80 80 NNW 10 17 30.45 1031 9 14.48406 0 0
7:54 am 07:54 Sunny 10 -12.2 3 -16.1 73 73 NW 5 7 30.48 1032 8 12.87472 0 0
8:54 am 08:54 Sunny 8 -13.3 1 -17.2 73 73 NNW 3 6 30.51 1033 9 14.48406 0 0
9:54 am 09:54 Sunny 14 -10 5 -15 67 67 NNW 3 6 30.51 1033 10 16.0934 0 0
10:54 am 10:54 Sunny 18 -7.8 5 -15 57 57 N 7 11 30.51 1033 10 16.0934 0 0
11:54 am 11:54 Sunny 20 -6.7 6 -14.4 55 55 N 8 13 30.52 1034 10 16.0934 0 0
12:54 pm 12:54 Sunny 21 -6.1 6 -14.4 52 52 N 5 7 30.51 1033 10 16.0934 0 0
1:54 pm 13:54 Sunny 22 -5.6 7 -13.9 52 52 N 7 11 30.5 1033 10 16.0934 0 0
2:54 pm 14:54 Sunny 24 -4.4 8 -13.3 50 50 WNW 8 13 30.5 1033 10 16.0934 0 0
3:54 pm 15:54 Sunny 22 -5.6 8 -13.3 55 55 W 9 15 30.49 1032 10 16.0934 0 0
4:54 pm 16:54 Sunny 22 -5.6 9 -12.8 57 57 WSW 7 11 30.49 1032 10 16.0934 0 0
5:54 pm 17:54 Sunny 18 -7.8 8 -13.3 65 65 WSW 6 9 30.48 1032 10 16.0934 0 0
6:54 pm 18:54 Clear 16 -8.9 7 -13.9 67 67 Calm 30.5 1033 10 16.0934 0 0
7:54 pm 19:54 Clear 16 -8.9 7 -13.9 67 67 SSW 6 9 30.49 1033 10 16.0934 0 0
8:54 pm 20:54 Clear 14 -10 6 -14.4 71 71 WSW 6 9 30.49 1033 10 16.0934 0 0
9:54 pm 21:54 Clear 12 -11.1 6 -14.4 77 77 WSW 3 6 30.5 1033 10 16.0934 0 0
10:54 pm 22:54 Clear 12 -11.1 5 -15 73 73 WSW 5 7 30.48 1032 10 16.0934 0 0
11:54 pm 23:54 Clear 9 -12.8 4 -15.6 80 80 Calm 30.46 1032 10 16.0934 0 0

Powered by AerisWeather